Time;durP1;ratioP1;P1;durP2;ratioP2;P2;SDS_P1;SDS_P2;PMS_P1;PMS_P2;Temp;Humidity;BMP_temperature;BMP_pressure;BME280_temperature;BME280_humidity;BME280_pressure;Samples;Min_cycle;Max_cycle;Signal;HPM_P1;HPM_P2
2022/04/14 00:01:44;;;;;;;15.43;4.95;;;11.00;99.90;;;;;;4973648;28;20802;-65
2022/04/14 00:04:11;;;;;;;6.15;2.95;;;11.00;99.90;;;;;;4971249;28;20062;-65
2022/04/14 00:06:38;;;;;;;12.13;5.35;;;11.00;99.90;;;;;;4981140;28;20149;-65
2022/04/14 00:09:05;;;;;;;12.70;4.50;;;10.90;99.90;;;;;;4992978;28;20049;-64
2022/04/14 00:11:32;;;;;;;;;;;10.90;99.90;;;;;;4993776;28;20562;-64
2022/04/14 00:13:58;;;;;;;9.20;3.45;;;10.90;99.90;;;;;;4993135;28;20018;-64
2022/04/14 00:16:25;;;;;;;;;;;10.90;99.90;;;;;;4978797;28;20682;-64
2022/04/14 00:18:53;;;;;;;10.02;4.25;;;10.90;99.90;;;;;;4972501;28;19956;-64
2022/04/14 00:21:20;;;;;;;8.98;3.65;;;10.90;99.90;;;;;;4973357;28;20074;-64
2022/04/14 00:23:47;;;;;;;8.30;4.00;;;10.80;99.90;;;;;;4973899;28;20120;-64
2022/04/14 00:26:14;;;;;;;;;;;10.80;99.90;;;;;;4974710;28;20043;-63
2022/04/14 00:28:41;;;;;;;6.78;3.70;;;10.80;99.90;;;;;;4971804;28;19935;-64
2022/04/14 00:31:07;;;;;;;8.30;4.07;;;10.80;99.90;;;;;;4973927;28;20061;-64
2022/04/14 00:33:34;;;;;;;;;;;10.80;99.90;;;;;;4974206;28;20109;-64
2022/04/14 00:36:02;;;;;;;10.02;4.28;;;10.80;99.90;;;;;;4971929;28;19956;-63
2022/04/14 00:38:29;;;;;;;6.35;2.83;;;10.80;99.90;;;;;;4973672;28;20060;-64
2022/04/14 00:40:56;;;;;;;13.18;4.53;;;10.80;99.90;;;;;;4972946;28;20043;-64
2022/04/14 00:43:33;;;;;;;;;;;10.80;99.90;;;;;;4974013;28;20055;-64
2022/04/14 00:46:01;;;;;;;4.68;3.42;;;10.70;99.90;;;;;;4973313;28;19926;-64
2022/04/14 00:48:29;;;;;;;11.98;3.70;;;10.70;99.90;;;;;;4972565;28;20049;-64
2022/04/14 00:50:56;;;;;;;12.63;5.35;;;10.80;99.90;;;;;;4972196;28;20043;-63
2022/04/14 00:53:23;;;;;;;10.73;3.92;;;10.70;99.90;;;;;;4959070;28;20185;-64
2022/04/14 00:55:51;;;;;;;6.63;3.88;;;10.70;99.90;;;;;;4958091;28;20150;-64
2022/04/14 00:58:19;;;;;;;8.25;3.40;;;10.70;99.90;;;;;;4964364;28;20042;-64
2022/04/14 01:00:46;;;;;;;15.25;4.47;;;10.70;99.90;;;;;;4977229;28;20050;-63
2022/04/14 01:03:14;;;;;;;13.50;3.75;;;10.70;99.90;;;;;;4976738;28;20050;-64
2022/04/14 01:05:42;;;;;;;14.57;4.15;;;10.70;99.90;;;;;;4976633;28;20058;-64
2022/04/14 01:08:09;;;;;;;13.50;3.83;;;10.70;99.90;;;;;;4976526;28;20057;-64
2022/04/14 01:10:36;;;;;;;;;;;10.70;99.90;;;;;;4977062;28;20054;-63
2022/04/14 01:13:03;;;;;;;9.38;3.88;;;10.70;99.90;;;;;;4976030;28;20697;-63
2022/04/14 01:15:30;;;;;;;9.30;3.67;;;10.70;99.90;;;;;;4976858;28;20524;-63
2022/04/14 01:17:57;;;;;;;13.45;4.20;;;10.70;99.90;;;;;;4976025;28;20085;-63
2022/04/14 01:20:24;;;;;;;12.23;4.80;;;10.70;99.90;;;;;;4975083;28;20046;-63
2022/04/14 01:22:56;;;;;;;;;;;10.70;99.90;;;;;;4977776;28;20050;-64
2022/04/14 01:25:26;;;;;;;18.55;5.20;;;10.70;99.90;;;;;;4977247;28;20004;-64
2022/04/14 01:27:53;;;;;;;13.43;4.55;;;10.70;99.90;;;;;;4974990;28;20733;-65
2022/04/14 01:30:20;;;;;;;;;;;10.70;99.90;;;;;;4977664;28;20489;-64
2022/04/14 01:32:47;;;;;;;10.35;5.05;;;10.70;99.90;;;;;;4976290;28;19933;-65
2022/04/14 01:35:14;;;;;;;12.23;4.82;;;10.70;99.90;;;;;;4976375;28;20046;-65
2022/04/14 01:37:41;;;;;;;8.95;4.07;;;10.70;99.90;;;;;;4974851;28;20201;-65
2022/04/14 01:40:08;;;;;;;;;;;10.70;99.90;;;;;;4977177;28;20046;-65
2022/04/14 01:42:35;;;;;;;18.75;5.13;;;10.70;99.90;;;;;;4975653;28;19925;-65
2022/04/14 01:45:06;;;;;;;11.05;4.63;;;10.70;99.90;;;;;;4975770;28;20140;-65
2022/04/14 01:47:41;;;;;;;11.52;4.65;;;10.70;99.90;;;;;;4975979;28;20093;-65
2022/04/14 01:50:12;;;;;;;18.10;4.68;;;10.70;99.90;;;;;;4976045;28;20061;-65
2022/04/14 01:52:40;;;;;;;7.43;3.47;;;10.70;99.90;;;;;;4972471;28;20404;-65
2022/04/14 01:55:08;;;;;;;14.35;4.28;;;10.60;99.90;;;;;;4976168;28;20050;-64
2022/04/14 01:57:35;;;;;;;9.05;4.38;;;10.60;99.90;;;;;;4974618;28;20655;-65
2022/04/14 02:00:05;;;;;;;8.98;3.75;;;10.60;99.90;;;;;;4974861;28;20512;-64
2022/04/14 02:02:31;;;;;;;6.72;2.97;;;10.60;99.90;;;;;;4975283;28;20420;-64
2022/04/14 02:04:58;;;;;;;10.68;3.97;;;10.60;99.90;;;;;;4976031;28;20050;-65
2022/04/14 02:07:25;;;;;;;;;;;10.60;99.90;;;;;;4975766;28;20045;-64
2022/04/14 02:09:52;;;;;;;9.93;3.05;;;10.60;99.90;;;;;;4976235;28;19977;-65
2022/04/14 02:12:19;;;;;;;6.93;3.65;;;10.60;99.90;;;;;;4975678;28;20491;-64
2022/04/14 02:14:45;;;;;;;14.93;3.80;;;10.60;99.90;;;;;;4975584;28;20086;-65
2022/04/14 02:17:12;;;;;;;;;;;10.60;99.90;;;;;;4975422;28;20100;-65
2022/04/14 02:19:39;;;;;;;8.80;4.10;;;10.60;99.90;;;;;;4974762;28;19979;-64
2022/04/14 02:22:05;;;;;;;10.65;3.67;;;10.50;99.90;;;;;;4975374;28;20042;-64
2022/04/14 02:24:32;;;;;;;5.05;3.05;;;10.50;99.90;;;;;;4975250;28;20452;-64
2022/04/14 02:26:59;;;;;;;;;;;10.40;99.90;;;;;;4975372;28;20077;-64
2022/04/14 02:29:26;;;;;;;5.65;3.28;;;10.40;99.90;;;;;;4975632;28;19926;-64
2022/04/14 02:31:56;;;;;;;;;;;10.30;99.90;;;;;;4976100;28;20050;-65
2022/04/14 02:34:26;;;;;;;10.85;3.75;;;10.30;99.90;;;;;;4975421;28;19956;-64
2022/04/14 02:36:54;;;;;;;10.45;3.70;;;10.30;99.90;;;;;;4973139;28;20042;-64
2022/04/14 02:39:21;;;;;;;10.60;4.38;;;10.30;99.90;;;;;;4975972;28;20109;-64
2022/04/14 02:41:47;;;;;;;;;;;10.20;99.90;;;;;;4975341;28;21013;-64
2022/04/14 02:44:14;;;;;;;8.02;2.95;;;10.20;99.90;;;;;;4975653;28;19928;-64
2022/04/14 02:46:41;;;;;;;11.52;3.45;;;10.20;99.90;;;;;;4975266;28;20341;-64
2022/04/14 02:49:08;;;;;;;;;;;10.20;99.90;;;;;;4972818;28;20065;-64
2022/04/14 02:51:35;;;;;;;9.13;4.70;;;10.20;99.90;;;;;;4974446;28;19926;-64
2022/04/14 02:54:02;;;;;;;9.77;4.72;;;10.10;99.90;;;;;;4973446;28;20539;-64
2022/04/14 02:56:29;;;;;;;7.88;3.80;;;10.10;99.90;;;;;;4975522;28;20042;-64
2022/04/14 02:58:55;;;;;;;6.07;3.92;;;10.10;99.90;;;;;;4973462;28;20046;-64
2022/04/14 03:01:22;;;;;;;;;;;10.00;99.90;;;;;;4974345;28;20141;-64
2022/04/14 03:03:49;;;;;;;6.25;4.03;;;10.00;99.90;;;;;;4973071;28;19925;-64
2022/04/14 03:06:16;;;;;;;;;;;10.00;99.90;;;;;;4975113;28;20873;-64
2022/04/14 03:08:42;;;;;;;14.50;5.20;;;10.00;99.90;;;;;;4974329;28;19929;-65
2022/04/14 03:11:10;;;;;;;24.70;6.13;;;9.90;99.90;;;;;;4974346;28;20070;-65
2022/04/14 03:13:36;;;;;;;6.65;4.00;;;9.90;99.90;;;;;;4974648;28;20045;-64
2022/04/14 03:16:03;;;;;;;;;;;9.80;99.90;;;;;;4974935;28;20069;-65
2022/04/14 03:18:30;;;;;;;15.13;6.35;;;9.80;99.90;;;;;;4974202;28;19959;-64
2022/04/14 03:20:57;;;;;;;8.50;4.32;;;9.80;99.90;;;;;;4974524;28;20523;-64
2022/04/14 03:23:24;;;;;;;;;;;9.80;99.90;;;;;;4974678;28;20104;-64
2022/04/14 03:25:51;;;;;;;10.50;4.28;;;9.80;99.90;;;;;;4974667;28;19952;-65
2022/04/14 03:28:18;;;;;;;7.57;3.88;;;9.80;99.90;;;;;;4972486;28;20054;-65
2022/04/14 03:30:45;;;;;;;;;;;9.80;99.90;;;;;;4974911;28;20050;-64
2022/04/14 03:33:12;;;;;;;8.67;4.80;;;9.80;99.90;;;;;;4974362;28;20424;-64
2022/04/14 03:35:38;;;;;;;10.23;4.85;;;9.80;99.90;;;;;;4973997;28;20473;-64
2022/04/14 03:38:05;;;;;;;12.80;4.05;;;9.80;99.90;;;;;;4972845;28;20038;-65
2022/04/14 03:40:52;;;;;;;12.00;4.50;;;9.70;99.90;;;;;;4973202;28;20129;-65
2022/04/14 03:43:19;;;;;;;8.73;4.78;;;9.70;99.90;;;;;;4973999;28;20056;-64
2022/04/14 03:45:46;;;;;;;7.22;3.83;;;9.70;99.90;;;;;;4973923;28;20181;-64
2022/04/14 03:48:13;;;;;;;8.20;4.45;;;9.60;99.90;;;;;;4972994;28;20050;-64
2022/04/14 03:50:40;;;;;;;;;;;9.60;99.90;;;;;;4974573;28;20529;-64
2022/04/14 03:53:07;;;;;;;14.90;4.55;;;9.60;99.90;;;;;;4973535;28;19921;-64
2022/04/14 03:55:33;;;;;;;;;;;9.60;99.90;;;;;;4973332;28;20046;-64
2022/04/14 03:58:00;;;;;;;8.18;3.47;;;9.60;99.90;;;;;;4972474;28;19929;-64
2022/04/14 04:00:27;;;;;;;8.98;4.03;;;9.60;99.90;;;;;;4974199;28;20078;-64
2022/04/14 04:02:54;;;;;;;;;;;9.60;99.90;;;;;;4973847;28;20125;-64
2022/04/14 04:05:21;;;;;;;10.13;4.60;;;9.70;99.90;;;;;;4974046;28;20401;-64
2022/04/14 04:07:48;;;;;;;;;;;9.70;99.90;;;;;;4973668;28;20046;-64
2022/04/14 04:10:14;;;;;;;12.95;4.57;;;9.70;99.90;;;;;;4973718;28;20535;-64
2022/04/14 04:12:41;;;;;;;11.95;4.80;;;9.80;99.90;;;;;;4973530;28;20046;-64
2022/04/14 04:15:11;;;;;;;9.50;3.90;;;9.80;99.90;;;;;;4973626;28;20169;-65
2022/04/14 04:17:39;;;;;;;17.67;4.25;;;9.80;99.90;;;;;;4972623;28;20046;-64
2022/04/14 04:20:07;;;;;;;8.80;3.97;;;9.80;99.90;;;;;;4973365;28;20047;-64
2022/04/14 04:22:34;;;;;;;11.82;4.57;;;9.80;99.90;;;;;;4956255;28;20050;-64
2022/04/14 04:25:01;;;;;;;;;;;9.80;99.90;;;;;;4973386;28;20065;-64
2022/04/14 04:27:28;;;;;;;16.40;4.22;;;9.80;99.90;;;;;;4976316;28;19925;-64
2022/04/14 04:29:54;;;;;;;;;;;9.90;99.90;;;;;;4978342;28;20402;-54
2022/04/14 04:32:21;;;;;;;16.08;4.28;;;9.90;99.90;;;;;;4977500;28;19975;-60
2022/04/14 04:34:48;;;;;;;;;;;9.90;99.90;;;;;;4977738;28;20046;-58
2022/04/14 04:37:15;;;;;;;11.85;5.65;;;9.90;99.90;;;;;;4976441;28;19932;-60
2022/04/14 04:39:42;;;;;;;15.32;4.93;;;9.90;99.90;;;;;;4976645;28;20034;-58
2022/04/14 04:42:09;;;;;;;8.75;4.13;;;9.90;99.90;;;;;;4976771;28;20049;-60
2022/04/14 04:44:36;;;;;;;;;;;9.90;99.90;;;;;;4976538;28;20140;-58
2022/04/14 04:47:03;;;;;;;5.97;4.03;;;9.90;99.90;;;;;;4976997;28;20015;-57
2022/04/14 04:49:29;;;;;;;;;;;9.90;99.90;;;;;;4977482;28;20061;-64
2022/04/14 04:51:56;;;;;;;11.77;4.13;;;9.90;99.90;;;;;;4976628;28;19937;-61
2022/04/14 04:54:23;;;;;;;;;;;9.90;99.90;;;;;;4976558;28;20049;-60
2022/04/14 04:56:50;;;;;;;9.23;3.78;;;9.90;99.90;;;;;;4974682;28;19932;-61
2022/04/14 04:59:17;;;;;;;7.32;3.58;;;10.00;99.90;;;;;;4977116;28;20124;-61
2022/04/14 05:01:44;;;;;;;12.02;4.45;;;10.00;99.90;;;;;;4974727;28;20050;-61
2022/04/14 05:04:11;;;;;;;;;;;10.00;99.90;;;;;;4976866;28;20049;-59
2022/04/14 05:06:38;;;;;;;4.63;3.70;;;10.10;99.90;;;;;;4976922;28;20817;-61
2022/04/14 05:09:06;;;;;;;5.75;2.85;;;10.10;99.90;;;;;;4976558;28;20049;-61
2022/04/14 05:11:34;;;;;;;7.80;3.50;;;10.20;99.90;;;;;;4976248;28;20108;-59
2022/04/14 05:14:01;;;;;;;6.32;3.72;;;10.20;99.90;;;;;;4977333;28;20146;-60
2022/04/14 05:16:29;;;;;;;9.80;3.72;;;10.20;99.90;;;;;;4975099;28;20677;-61
2022/04/14 05:18:55;;;;;;;4.85;3.10;;;10.30;99.90;;;;;;4974155;28;20128;-62
2022/04/14 05:21:22;;;;;;;;;;;10.30;99.90;;;;;;4978093;28;20038;-61
2022/04/14 05:23:49;;;;;;;5.63;2.72;;;10.30;99.90;;;;;;4976577;28;20001;-59
2022/04/14 05:26:16;;;;;;;6.05;3.17;;;10.40;99.90;;;;;;4974559;28;20057;-60
2022/04/14 05:28:42;;;;;;;;;;;10.40;99.90;;;;;;4975621;28;20839;-60
2022/04/14 05:31:09;;;;;;;4.90;3.15;;;10.40;99.90;;;;;;4976859;28;19933;-59
2022/04/14 05:33:36;;;;;;;5.57;3.47;;;10.40;99.90;;;;;;4995451;28;20065;-64
2022/04/14 05:36:04;;;;;;;6.38;3.45;;;10.40;99.90;;;;;;4994629;28;20046;-56
2022/04/14 05:38:31;;;;;;;6.85;3.83;;;10.40;99.90;;;;;;4982058;28;20050;-57
2022/04/14 05:40:58;;;;;;;7.97;4.30;;;10.40;99.90;;;;;;4975240;28;20042;-57
2022/04/14 05:43:27;;;;;;;;;;;10.40;99.90;;;;;;4977458;28;20073;-54
2022/04/14 05:45:55;;;;;;;15.88;4.07;;;10.40;99.90;;;;;;4976594;28;19925;-58
2022/04/14 05:48:22;;;;;;;6.88;3.80;;;10.40;99.90;;;;;;4974885;28;20070;-56
2022/04/14 05:50:50;;;;;;;7.40;4.00;;;10.40;99.90;;;;;;4976153;28;20046;-57
2022/04/14 05:53:25;;;;;;;9.27;4.43;;;10.40;99.90;;;;;;4976172;28;20649;-57
2022/04/14 05:55:53;;;;;;;7.95;3.60;;;10.50;99.90;;;;;;4971663;28;20556;-58
2022/04/14 05:58:19;;;;;;;6.97;3.63;;;10.70;99.90;;;;;;4971444;28;20046;-59
2022/04/14 06:00:47;;;;;;;9.02;3.67;;;10.80;99.90;;;;;;4982427;28;20042;-58
2022/04/14 06:03:13;;;;;;;;;;;10.90;99.90;;;;;;4994476;28;20052;-58
2022/04/14 06:05:40;;;;;;;7.95;3.78;;;10.90;99.90;;;;;;4979010;28;20028;-57
2022/04/14 06:08:07;;;;;;;;;;;11.00;99.90;;;;;;4994207;28;20488;-59
2022/04/14 06:10:35;;;;;;;11.93;4.60;;;11.10;99.90;;;;;;4992191;28;19953;-60
2022/04/14 06:13:03;;;;;;;12.68;4.22;;;11.20;99.90;;;;;;4992173;28;20054;-60
2022/04/14 06:15:31;;;;;;;8.77;4.82;;;11.30;99.90;;;;;;4988729;28;20061;-60
2022/04/14 06:17:58;;;;;;;15.63;5.70;;;11.40;99.90;;;;;;4988618;28;20127;-57
2022/04/14 06:20:25;;;;;;;10.38;4.32;;;11.50;99.90;;;;;;4989253;28;20037;-58
2022/04/14 06:22:56;;;;;;;9.02;3.45;;;11.60;99.90;;;;;;4994784;28;20128;-57
2022/04/14 06:25:22;;;;;;;8.13;4.07;;;11.70;99.90;;;;;;4994123;28;20037;-59
2022/04/14 06:27:51;;;;;;;7.50;3.90;;;11.80;99.90;;;;;;4994559;28;20061;-59
2022/04/14 06:30:20;;;;;;;6.88;3.85;;;11.90;99.90;;;;;;4996862;28;20053;-59
2022/04/14 06:33:03;;;;;;;9.25;3.90;;;12.00;99.90;;;;;;4995504;28;20073;-60
2022/04/14 06:35:32;;;;;;;8.07;4.45;;;12.20;99.90;;;;;;4994819;28;20042;-59
2022/04/14 06:37:58;;;;;;;8.35;3.60;;;12.30;99.90;;;;;;4991385;28;20963;-61
2022/04/14 06:40:25;;;;;;;;;;;12.50;99.90;;;;;;4974419;28;20042;-58
2022/04/14 06:43:01;;;;;;;12.68;5.10;;;12.60;99.90;;;;;;4975704;28;20448;-58
2022/04/14 06:45:30;;;;;;;9.07;4.05;;;12.70;99.90;;;;;;4976424;28;20077;-60
2022/04/14 06:47:58;;;;;;;8.50;4.18;;;12.90;99.90;;;;;;4974367;28;20131;-60
2022/04/14 06:50:24;;;;;;;11.98;4.45;;;13.00;99.90;;;;;;4975781;28;20065;-61
2022/04/14 06:52:52;;;;;;;7.38;3.58;;;13.10;99.90;;;;;;4976118;28;20046;-54
2022/04/14 06:55:22;;;;;;;8.32;3.50;;;13.20;99.90;;;;;;4974551;28;20043;-56
2022/04/14 06:57:50;;;;;;;7.53;4.15;;;13.40;99.90;;;;;;4981093;28;20046;-56
2022/04/14 07:00:18;;;;;;;13.80;4.13;;;13.50;99.90;;;;;;4975362;28;20428;-57
2022/04/14 07:02:50;;;;;;;14.88;4.55;;;13.70;99.90;;;;;;4974957;28;20844;-58
2022/04/14 07:05:18;;;;;;;10.02;4.68;;;13.80;99.90;;;;;;4975365;28;20065;-59
2022/04/14 07:07:45;;;;;;;12.77;4.43;;;14.00;99.90;;;;;;4974129;28;20704;-60
2022/04/14 07:10:13;;;;;;;6.55;4.00;;;14.20;99.90;;;;;;4974601;28;20069;-57
2022/04/14 07:12:41;;;;;;;13.30;4.15;;;14.30;99.90;;;;;;4973644;28;20054;-58
2022/04/14 07:15:09;;;;;;;10.35;4.30;;;14.50;99.90;;;;;;4975344;28;20128;-56
2022/04/14 07:17:37;;;;;;;18.63;4.25;;;14.60;99.90;;;;;;4973285;28;20756;-58
2022/04/14 07:20:07;;;;;;;7.97;3.92;;;14.80;99.90;;;;;;4974238;28;20132;-60
2022/04/14 07:22:46;;;;;;;8.93;3.88;;;14.90;99.90;;;;;;4975370;28;20042;-62
2022/04/14 07:25:21;;;;;;;8.57;4.03;;;15.00;99.90;;;;;;4974035;28;20054;-55
2022/04/14 07:27:48;;;;;;;15.45;4.00;;;15.20;99.90;;;;;;4971802;28;20050;-59
2022/04/14 07:30:15;;;;;;;9.63;4.32;;;15.40;99.90;;;;;;4974490;28;20123;-61
2022/04/14 07:32:43;;;;;;;10.13;3.38;;;15.50;99.90;;;;;;4973794;28;20054;-60
2022/04/14 07:35:12;;;;;;;7.05;3.47;;;15.60;99.90;;;;;;4976487;28;20065;-62
2022/04/14 07:37:39;;;;;;;8.93;4.60;;;15.80;99.90;;;;;;4992490;28;20052;-61
2022/04/14 07:40:07;;;;;;;8.00;3.72;;;16.00;99.90;;;;;;4986146;28;20049;-61
2022/04/14 07:42:39;;;;;;;7.25;3.90;;;16.10;99.90;;;;;;4993233;28;20069;-62
2022/04/14 07:45:08;;;;;;;6.85;3.75;;;16.50;99.90;;;;;;4990938;28;20042;-60
2022/04/14 07:47:42;;;;;;;10.95;3.72;;;17.10;99.90;;;;;;4986927;28;20057;-62
2022/04/14 07:50:15;;;;;;;7.53;3.05;;;17.70;99.90;;;;;;4975100;28;20451;-70
2022/04/14 07:52:52;;;;;;;8.63;3.97;;;18.30;99.90;;;;;;4974134;28;20065;-65
2022/04/14 07:55:19;;;;;;;11.18;3.95;;;18.90;99.90;;;;;;4974564;28;20054;-56
2022/04/14 07:57:46;;;;;;;;;;;19.30;98.50;;;;;;4980188;28;20043;-55
2022/04/14 08:00:13;;;;;;;14.98;3.95;;;19.70;97.10;;;;;;4991263;28;20596;-55
2022/04/14 08:02:54;;;;;;;13.43;3.67;;;20.00;94.30;;;;;;4994508;28;20129;-61
2022/04/14 08:05:28;;;;;;;8.05;3.05;;;20.30;92.80;;;;;;4993415;28;20042;-62
2022/04/14 08:07:55;;;;;;;14.90;3.50;;;20.60;90.60;;;;;;4993492;28;20341;-61
2022/04/14 08:10:22;;;;;;;12.75;3.88;;;20.80;87.00;;;;;;4994405;28;20085;-55
2022/04/14 08:12:49;;;;;;;21.48;3.75;;;21.10;85.30;;;;;;4994030;28;20661;-60
2022/04/14 08:15:17;;;;;;;11.60;3.22;;;21.40;82.10;;;;;;4987711;28;20041;-51
2022/04/14 08:17:44;;;;;;;6.30;3.50;;;21.60;78.10;;;;;;4973857;28;20050;-59
2022/04/14 08:20:14;;;;;;;13.48;3.40;;;21.80;75.90;;;;;;4974405;28;20042;-63
2022/04/14 08:22:50;;;;;;;9.13;3.33;;;21.90;74.60;;;;;;4979115;28;20609;-60
2022/04/14 08:25:31;;;;;;;6.38;3.33;;;21.90;72.20;;;;;;4993187;28;20112;-62
2022/04/14 08:27:59;;;;;;;12.80;3.05;;;21.90;69.50;;;;;;4993568;28;20045;-62
2022/04/14 08:30:28;;;;;;;11.85;3.30;;;21.70;70.70;;;;;;4994049;28;20092;-62
2022/04/14 08:32:58;;;;;;;11.20;3.60;;;21.70;69.60;;;;;;4992528;28;20143;-62
2022/04/14 08:35:26;;;;;;;9.75;3.95;;;21.80;71.90;;;;;;4994396;28;20508;-63
2022/04/14 08:37:53;;;;;;;9.90;3.83;;;22.00;71.40;;;;;;4991572;28;20497;-64
2022/04/14 08:40:23;;;;;;;15.82;4.68;;;22.00;73.90;;;;;;4979007;28;20081;-60
2022/04/14 08:43:03;;;;;;;6.90;3.58;;;22.00;75.50;;;;;;4975605;28;20065;-62
2022/04/14 08:45:33;;;;;;;9.35;3.65;;;22.10;74.20;;;;;;4973882;28;20057;-64
2022/04/14 08:48:04;;;;;;;9.52;3.72;;;22.40;76.20;;;;;;4974301;28;20057;-61
2022/04/14 08:50:31;;;;;;;13.77;4.15;;;22.60;73.70;;;;;;4972973;28;20740;-62
2022/04/14 08:52:59;;;;;;;13.02;3.88;;;22.80;73.10;;;;;;4974221;28;20046;-62
2022/04/14 08:55:27;;;;;;;12.98;4.15;;;23.00;72.50;;;;;;4974768;28;20038;-64
2022/04/14 08:57:56;;;;;;;17.60;5.10;;;23.10;73.10;;;;;;4972961;28;20046;-63
2022/04/14 09:00:23;;;;;;;8.90;3.92;;;23.40;72.40;;;;;;4983501;28;20547;-63
2022/04/14 09:02:53;;;;;;;12.43;4.80;;;23.50;69.20;;;;;;4993581;28;20100;-64
2022/04/14 09:05:19;;;;;;;9.10;3.95;;;23.70;67.80;;;;;;4994307;28;20049;-61
2022/04/14 09:07:51;;;;;;;6.80;3.58;;;23.80;68.80;;;;;;4992485;28;20072;-61
2022/04/14 09:10:18;;;;;;;12.38;3.70;;;23.90;62.50;;;;;;4992631;28;20121;-62
2022/04/14 09:12:49;;;;;;;14.70;4.40;;;23.90;64.80;;;;;;4995725;28;20066;-64
2022/04/14 09:15:17;;;;;;;14.32;4.50;;;24.00;66.70;;;;;;4990307;28;20857;-62
2022/04/14 09:17:44;;;;;;;8.85;3.88;;;24.10;64.40;;;;;;4977113;28;20553;-63
2022/04/14 09:20:34;;;;;;;6.35;3.42;;;24.20;63.20;;;;;;4978628;28;20497;-61
2022/04/14 09:23:23;;;;;;;11.75;3.85;;;24.40;64.00;;;;;;4977750;28;20042;-63
2022/04/14 09:25:59;;;;;;;9.30;2.95;;;24.60;59.50;;;;;;4977933;28;20046;-61
2022/04/14 09:28:26;;;;;;;17.50;3.50;;;24.40;56.50;;;;;;4977595;28;20042;-63
2022/04/14 09:31:09;;;;;;;12.50;3.65;;;24.30;57.20;;;;;;4978167;28;20116;-63
2022/04/14 09:33:44;;;;;;;10.85;4.22;;;24.10;56.00;;;;;;4984269;28;20076;-64
2022/04/14 09:36:19;;;;;;;8.35;3.13;;;24.00;59.60;;;;;;4977564;28;20046;-63
2022/04/14 09:38:59;;;;;;;15.20;3.35;;;24.10;63.10;;;;;;4976913;28;20062;-64
2022/04/14 09:41:40;;;;;;;11.93;3.92;;;24.20;62.50;;;;;;4976081;28;20050;-63
2022/04/14 09:44:11;;;;;;;18.75;4.40;;;24.50;62.10;;;;;;4977013;28;20046;-63
2022/04/14 09:46:42;;;;;;;13.00;4.00;;;24.50;59.60;;;;;;4974703;28;20054;-65
2022/04/14 09:49:12;;;;;;;16.50;4.07;;;24.60;61.60;;;;;;4976304;28;20133;-64
2022/04/14 09:51:42;;;;;;;11.18;4.25;;;24.60;59.20;;;;;;4975762;28;20053;-62
2022/04/14 09:54:12;;;;;;;6.88;3.42;;;24.60;59.90;;;;;;4977285;28;20162;-64
2022/04/14 09:56:47;;;;;;;9.07;4.15;;;24.70;58.50;;;;;;4976421;28;20076;-63
2022/04/14 09:59:17;;;;;;;11.00;3.63;;;24.90;60.60;;;;;;4980050;28;20045;-62
2022/04/14 10:01:46;;;;;;;14.50;4.60;;;25.00;59.80;;;;;;4975555;28;20563;-63
2022/04/14 10:04:33;;;;;;;10.65;3.53;;;24.90;57.10;;;;;;4976627;28;20043;-61
2022/04/14 10:07:08;;;;;;;7.22;3.72;;;24.80;57.50;;;;;;4975810;28;20504;-61
2022/04/14 10:09:39;;;;;;;12.48;5.13;;;24.90;56.00;;;;;;4976645;28;20047;-61
2022/04/14 10:12:26;;;;;;;15.13;4.60;;;24.70;55.00;;;;;;4976624;28;20749;-61
2022/04/14 10:14:56;;;;;;;;;;;24.60;56.90;;;;;;4976589;28;20050;-63
2022/04/14 10:17:25;;;;;;;21.20;5.55;;;24.60;57.40;;;;;;4975463;28;20708;-61
2022/04/14 10:19:52;;;;;;;10.80;4.28;;;24.60;55.00;;;;;;4975030;28;20042;-63
2022/04/14 10:22:19;;;;;;;8.93;3.75;;;24.50;56.30;;;;;;4975420;28;20060;-60
2022/04/14 10:24:47;;;;;;;19.05;5.25;;;24.40;58.20;;;;;;4983916;28;20528;-62
2022/04/14 10:27:15;;;;;;;9.32;4.00;;;24.50;58.50;;;;;;4992970;28;20049;-62
2022/04/14 10:29:42;;;;;;;10.57;4.72;;;24.60;56.10;;;;;;4993996;28;20048;-65
2022/04/14 10:32:10;;;;;;;8.82;3.88;;;24.60;54.50;;;;;;4994637;28;20103;-63
2022/04/14 10:34:37;;;;;;;10.63;4.20;;;24.70;59.90;;;;;;4993610;28;20520;-61
2022/04/14 10:37:12;;;;;;;8.00;4.07;;;24.70;59.00;;;;;;4991929;28;20041;-62
2022/04/14 10:39:46;;;;;;;13.43;4.80;;;24.80;58.30;;;;;;4992557;28;20038;-63
2022/04/14 10:42:18;;;;;;;9.75;4.28;;;24.90;57.00;;;;;;4990340;28;20048;-63
2022/04/14 10:44:47;;;;;;;12.15;4.68;;;25.10;58.80;;;;;;4993920;28;20041;-62
2022/04/14 10:47:42;;;;;;;14.55;4.38;;;25.30;58.90;;;;;;4993382;28;20041;-60
2022/04/14 10:50:28;;;;;;;13.35;4.00;;;25.20;57.40;;;;;;4974286;28;20048;-62
2022/04/14 10:53:19;;;;;;;13.90;3.95;;;25.30;57.20;;;;;;4976417;28;20873;-61
2022/04/14 10:55:48;;;;;;;12.20;4.10;;;25.50;56.60;;;;;;4975291;28;20054;-63
2022/04/14 10:58:38;;;;;;;10.57;3.83;;;25.70;56.50;;;;;;4972391;28;20034;-61
2022/04/14 11:01:06;;;;;;;12.13;4.63;;;26.00;55.50;;;;;;4981502;28;20042;-62
2022/04/14 11:03:52;;;;;;;14.13;3.72;;;26.10;55.10;;;;;;4993370;28;20042;-64
2022/04/14 11:06:43;;;;;;;8.57;4.30;;;26.20;55.20;;;;;;4994914;28;20123;-62
2022/04/14 11:09:42;;;;;;;12.77;4.03;;;26.20;53.10;;;;;;4996735;28;20054;-63
2022/04/14 11:12:28;;;;;;;6.22;3.08;;;26.20;53.90;;;;;;5008514;28;20062;-63
2022/04/14 11:15:30;;;;;;;10.18;3.67;;;26.30;51.60;;;;;;4992345;28;20054;-62
2022/04/14 11:18:06;;;;;;;13.13;4.00;;;26.50;53.70;;;;;;4974254;28;20666;-61
2022/04/14 11:20:34;;;;;;;9.80;3.40;;;26.60;51.50;;;;;;4975068;28;20046;-61
2022/04/14 11:23:08;;;;;;;14.75;3.85;;;26.70;50.30;;;;;;4975507;28;20485;-60
2022/04/14 11:25:41;;;;;;;13.27;3.50;;;26.60;48.70;;;;;;4973381;28;20227;-62
2022/04/14 11:28:18;;;;;;;5.88;3.40;;;26.60;48.10;;;;;;4972585;28;20800;-63
2022/04/14 11:30:45;;;;;;;;;;;26.60;49.50;;;;;;4975309;28;20136;-61
2022/04/14 11:33:21;;;;;;;12.70;4.22;;;26.60;50.50;;;;;;4975207;28;19921;-63
2022/04/14 11:35:48;;;;;;;15.77;4.40;;;26.70;50.70;;;;;;4974380;28;20496;-61
2022/04/14 11:38:56;;;;;;;12.65;3.55;;;26.80;49.30;;;;;;4972938;28;20046;-62
2022/04/14 11:41:44;;;;;;;15.63;4.45;;;26.80;51.60;;;;;;4985880;28;20064;-61
2022/04/14 11:44:12;;;;;;;10.80;5.07;;;26.80;53.70;;;;;;4972834;28;20046;-62
2022/04/14 11:46:52;;;;;;;11.77;5.22;;;26.80;55.50;;;;;;4974349;28;20054;-63
2022/04/14 11:49:22;;;;;;;10.00;5.82;;;26.90;53.60;;;;;;4973814;28;20042;-61
2022/04/14 11:51:57;;;;;;;9.85;4.72;;;26.90;52.60;;;;;;4974250;28;20058;-63
2022/04/14 11:54:26;;;;;;;7.75;4.10;;;26.90;55.10;;;;;;4974807;28;20077;-61
2022/04/14 11:57:10;;;;;;;15.35;5.70;;;26.90;54.60;;;;;;4972381;28;20051;-63
2022/04/14 11:59:45;;;;;;;9.68;4.43;;;26.80;54.80;;;;;;4984887;28;20042;-59
2022/04/14 12:02:19;;;;;;;9.45;4.68;;;26.80;54.20;;;;;;4984974;28;20042;-64
2022/04/14 12:04:51;;;;;;;15.13;5.57;;;26.90;54.10;;;;;;4992897;28;20042;-61
2022/04/14 12:07:20;;;;;;;11.15;4.97;;;27.00;53.80;;;;;;4993321;28;20042;-61
2022/04/14 12:09:58;;;;;;;21.55;6.32;;;27.00;53.90;;;;;;4993592;28;20134;-61
2022/04/14 12:12:25;;;;;;;13.07;5.88;;;26.60;53.60;;;;;;4993406;28;20388;-63
2022/04/14 12:14:55;;;;;;;10.25;5.30;;;26.10;54.20;;;;;;4990473;28;20108;-61
2022/04/14 12:17:24;;;;;;;10.98;6.00;;;25.70;56.10;;;;;;4971308;28;20623;-62
2022/04/14 12:20:00;;;;;;;8.30;4.90;;;25.50;56.20;;;;;;4973948;28;20387;-62
2022/04/14 12:22:33;;;;;;;19.85;6.85;;;25.50;56.70;;;;;;4973957;28;20050;-60
2022/04/14 12:25:06;;;;;;;9.70;4.68;;;25.50;56.90;;;;;;4973079;28;20528;-63
2022/04/14 12:27:38;;;;;;;19.15;6.32;;;25.70;56.30;;;;;;4971915;28;20046;-61
2022/04/14 12:30:09;;;;;;;13.63;5.80;;;25.90;56.30;;;;;;4972816;28;20064;-61
2022/04/14 12:32:36;;;;;;;10.20;5.45;;;26.10;56.20;;;;;;4973814;28;20164;-63
2022/04/14 12:35:08;;;;;;;16.48;5.72;;;26.10;55.00;;;;;;4974225;28;20113;-60
2022/04/14 12:37:37;;;;;;;12.93;5.28;;;26.10;54.20;;;;;;4973527;28;20066;-62
2022/04/14 12:40:13;;;;;;;14.95;5.38;;;26.10;53.80;;;;;;4973788;28;20042;-61
2022/04/14 12:42:41;;;;;;;6.68;5.10;;;26.00;54.90;;;;;;4972508;28;20050;-60
2022/04/14 12:45:12;;;;;;;10.35;4.15;;;25.90;54.20;;;;;;4973689;28;20046;-62
2022/04/14 12:47:41;;;;;;;11.23;4.82;;;25.90;54.40;;;;;;4975293;28;20046;-59
2022/04/14 12:50:09;;;;;;;18.25;6.18;;;26.10;54.50;;;;;;4976860;28;20416;-57
2022/04/14 12:52:36;;;;;;;13.20;5.75;;;26.20;54.40;;;;;;4984237;28;20084;-58
2022/04/14 12:55:05;;;;;;;19.73;6.78;;;26.10;54.10;;;;;;4997709;28;20065;-59
2022/04/14 12:57:33;;;;;;;13.32;6.00;;;26.00;52.80;;;;;;4993131;28;20708;-59
2022/04/14 13:00:04;;;;;;;10.00;4.47;;;26.00;53.30;;;;;;4977597;28;20035;-60
2022/04/14 13:02:31;;;;;;;14.60;5.80;;;25.90;52.60;;;;;;4977863;28;20034;-58
2022/04/14 13:05:11;;;;;;;10.90;4.70;;;26.10;54.00;;;;;;4987968;28;20831;-60
2022/04/14 13:07:56;;;;;;;17.13;6.60;;;26.20;53.30;;;;;;4989209;28;20724;-58